Time;durP1;ratioP1;P1;durP2;ratioP2;P2;SDS_P1;SDS_P2;PMS_P1;PMS_P2;Temp;Humidity;BMP_temperature;BMP_pressure;BME280_temperature;BME280_humidity;BME280_pressure;Samples;Min_cycle;Max_cycle;Signal;HPM_P1;HPM_P2
2023/12/30 00:00:50;;;;;;;2.58;0.80;;;;;;;;;;5033552;28;20281;-83
2023/12/30 00:03:20;;;;;;;1.40;0.95;;;;;;;;;;5032745;28;20225;-85
2023/12/30 00:05:50;;;;;;;2.67;0.90;;;;;;;;;;5032256;28;20199;-83
2023/12/30 00:08:22;;;;;;;1.27;0.80;;;;;;;;;;5032300;28;20194;-83
2023/12/30 00:10:52;;;;;;;3.30;0.80;;;;;;;;;;5032526;28;20190;-82
2023/12/30 00:13:22;;;;;;;2.63;0.88;;;;;;;;;;5032199;28;20214;-82
2023/12/30 00:15:52;;;;;;;0.70;0.70;;;;;;;;;;5032821;28;20202;-78
2023/12/30 00:18:22;;;;;;;1.65;0.80;;;;;;;;;;5032682;28;20277;-83
2023/12/30 00:20:51;;;;;;;3.40;1.00;;;;;;;;;;5032984;28;20190;-83
2023/12/30 00:23:23;;;;;;;1.38;0.88;;;;;;;;;;5032652;28;20229;-81
2023/12/30 00:25:54;;;;;;;2.28;1.17;;;;;;;;;;5032169;28;20293;-90
2023/12/30 00:28:24;;;;;;;0.70;0.60;;;;;;;;;;5032951;28;20195;-84
2023/12/30 00:30:54;;;;;;;1.02;0.70;;;;;;;;;;5032682;28;20198;-86
2023/12/30 00:33:24;;;;;;;1.10;0.73;;;;;;;;;;5033050;28;20208;-86
2023/12/30 00:35:54;;;;;;;1.30;0.77;;;;;;;;;;5032537;28;20198;-84
2023/12/30 00:38:25;;;;;;;0.98;0.70;;;;;;;;;;5041078;28;20207;-87
2023/12/30 00:40:56;;;;;;;3.10;0.90;;;;;;;;;;5051917;28;20837;-82
2023/12/30 00:43:26;;;;;;;1.70;0.90;;;;;;;;;;5030078;28;20236;-82
2023/12/30 00:45:56;;;;;;;3.58;1.08;;;;;;;;;;5030695;28;20282;-89
2023/12/30 00:48:26;;;;;;;1.45;1.00;;;;;;;;;;5031554;28;20655;-84
2023/12/30 00:50:56;;;;;;;1.42;0.88;;;;;;;;;;5031300;28;20198;-84
2023/12/30 00:53:28;;;;;;;2.08;0.90;;;;;;;;;;5031133;28;20887;-84
2023/12/30 00:55:58;;;;;;;2.17;0.82;;;;;;;;;;5031790;28;20193;-85
2023/12/30 00:58:28;;;;;;;1.58;0.70;;;;;;;;;;5032704;28;20197;-83
2023/12/30 01:00:58;;;;;;;1.30;0.90;;;;;;;;;;5032618;28;20233;-86
2023/12/30 01:03:28;;;;;;;1.38;0.85;;;;;;;;;;5033234;28;20746;-87
2023/12/30 01:05:57;;;;;;;1.92;0.90;;;;;;;;;;5032463;28;20215;-86
2023/12/30 01:08:29;;;;;;;2.83;1.33;;;;;;;;;;5035670;28;20205;-82
2023/12/30 01:10:59;;;;;;;2.30;0.90;;;;;;;;;;5036168;28;20226;-86
2023/12/30 01:13:29;;;;;;;1.92;0.80;;;;;;;;;;5035660;28;20308;-83
2023/12/30 01:15:59;;;;;;;1.63;0.80;;;;;;;;;;5036310;28;20281;-86
2023/12/30 01:18:29;;;;;;;2.30;0.90;;;;;;;;;;5036240;28;20221;-80
2023/12/30 01:21:03;;;;;;;2.50;1.02;;;;;;;;;;5036082;28;20208;-87
2023/12/30 01:23:35;;;;;;;2.20;0.90;;;;;;;;;;5036223;28;20257;-84
2023/12/30 01:26:05;;;;;;;2.78;1.13;;;;;;;;;;5036993;28;20252;-86
2023/12/30 01:28:36;;;;;;;2.25;0.90;;;;;;;;;;5049793;28;20229;-87
2023/12/30 01:31:06;;;;;;;1.10;0.70;;;;;;;;;;5042360;28;20272;-87
2023/12/30 01:33:36;;;;;;;2.55;0.95;;;;;;;;;;5036083;28;20206;-86
2023/12/30 01:36:06;;;;;;;2.92;1.00;;;;;;;;;;5035917;28;20665;-89
2023/12/30 01:38:38;;;;;;;1.55;0.88;;;;;;;;;;5043841;28;20285;-87
2023/12/30 01:41:08;;;;;;;2.03;0.82;;;;;;;;;;5055621;28;20204;-87
2023/12/30 01:43:38;;;;;;;2.05;0.80;;;;;;;;;;5039166;28;20788;-85
2023/12/30 01:46:10;;;;;;;2.15;0.80;;;;;;;;;;5097797;22;20711;-81
2023/12/30 01:48:40;;;;;;;1.67;0.70;;;;;;;;;;5056563;28;20292;-81
2023/12/30 01:51:10;;;;;;;2.22;0.80;;;;;;;;;;5055408;28;20284;-82
2023/12/30 01:53:43;;;;;;;5.30;2.78;;;;;;;;;;5072707;28;20207;-80
2023/12/30 01:56:13;;;;;;;21.17;14.23;;;;;;;;;;5075363;28;20189;-81
2023/12/30 01:58:43;;;;;;;2.15;1.08;;;;;;;;;;5075314;28;20203;-81
2023/12/30 02:01:13;;;;;;;1.13;0.60;;;;;;;;;;5075278;28;20201;-81
2023/12/30 02:03:43;;;;;;;1.52;0.80;;;;;;;;;;5089411;28;20255;-81
2023/12/30 02:06:14;;;;;;;0.70;0.70;;;;;;;;;;5095582;28;20291;-81
2023/12/30 02:08:48;;;;;;;1.45;0.95;;;;;;;;;;5094847;28;20276;-80
2023/12/30 02:11:18;;;;;;;1.38;0.82;;;;;;;;;;5095675;28;20184;-81
2023/12/30 02:13:48;;;;;;;2.45;0.90;;;;;;;;;;5085566;28;20742;-80
2023/12/30 02:16:18;;;;;;;2.53;1.00;;;;;;;;;;5095267;28;20238;-82
2023/12/30 02:18:48;;;;;;;1.98;0.80;;;;;;;;;;5082608;28;20301;-83
2023/12/30 02:21:18;;;;;;;3.13;0.82;;;;;;;;;;5074725;28;20201;-80
2023/12/30 02:23:54;;;;;;;2.08;0.90;;;;;;;;;;5075039;28;20579;-80
2023/12/30 02:26:24;;;;;;;1.33;0.80;;;;;;;;;;5074707;28;20192;-80
2023/12/30 02:28:54;;;;;;;1.77;0.90;;;;;;;;;;5085422;28;20245;-82
2023/12/30 02:31:24;;;;;;;5.85;3.85;;;;;;;;;;5095180;28;20290;-86
2023/12/30 02:33:54;;;;;;;2.25;0.90;;;;;;;;;;5096031;28;20200;-87
2023/12/30 02:36:24;;;;;;;1.58;0.70;;;;;;;;;;5094789;28;20211;-83
2023/12/30 02:38:56;;;;;;;0.90;0.60;;;;;;;;;;5094639;28;20208;-82
2023/12/30 02:41:27;;;;;;;1.35;0.70;;;;;;;;;;5094667;28;20718;-81
2023/12/30 02:44:03;;;;;;;2.88;0.73;;;;;;;;;;5082261;28;20272;-82
2023/12/30 02:46:33;;;;;;;3.15;0.80;;;;;;;;;;5068892;28;20670;-82
2023/12/30 02:49:04;;;;;;;0.85;0.80;;;;;;;;;;5074081;28;20300;-83
2023/12/30 02:51:34;;;;;;;1.10;0.60;;;;;;;;;;5074382;28;20226;-85
2023/12/30 02:54:06;;;;;;;0.68;0.68;;;;;;;;;;5074249;28;20282;-84
2023/12/30 02:56:36;;;;;;;3.38;0.98;;;;;;;;;;5074237;28;20276;-83
2023/12/30 02:59:06;;;;;;;2.17;0.80;;;;;;;;;;5078414;28;20277;-88
2023/12/30 03:01:38;;;;;;;2.78;0.75;;;;;;;;;;5074647;28;20205;-83
